Time;durP1;ratioP1;P1;durP2;ratioP2;P2;SDS_P1;SDS_P2;PMS_P1;PMS_P2;Temp;Humidity;BMP_temperature;BMP_pressure;BME280_temperature;BME280_humidity;BME280_pressure;Samples;Min_cycle;Max_cycle;Signal;HPM_P1;HPM_P2
2022/12/05 00:02:30;;;;;;;52.63;30.43;;;;;;;2.13;100.00;101641.00;5174261;28;20015;-68
2022/12/05 00:05:01;;;;;;;51.60;30.70;;;;;;;2.16;100.00;101646.13;5177681;28;20030;-68
2022/12/05 00:07:33;;;;;;;48.57;30.90;;;;;;;2.14;100.00;101647.03;5172046;28;20023;-69
2022/12/05 00:10:05;;;;;;;47.97;31.17;;;;;;;2.22;100.00;101652.09;5170635;28;20050;-68
2022/12/05 00:12:36;;;;;;;50.67;30.60;;;;;;;2.13;100.00;101651.34;5174933;28;20482;-68
2022/12/05 00:15:11;;;;;;;51.90;31.87;;;;;;;2.10;100.00;101651.38;5170864;28;20038;-68
2022/12/05 00:17:42;;;;;;;50.72;32.13;;;;;;;2.16;100.00;101650.47;5171570;28;20702;-70
2022/12/05 00:20:13;;;;;;;50.97;32.10;;;;;;;2.17;100.00;101644.41;5171225;28;20113;-69
2022/12/05 00:22:45;;;;;;;49.70;31.57;;;;;;;2.18;100.00;101657.31;5173553;28;20027;-69
2022/12/05 00:25:16;;;;;;;51.43;31.97;;;;;;;2.11;100.00;101653.09;5172312;28;20091;-68
2022/12/05 00:27:47;;;;;;;50.33;31.30;;;;;;;2.14;100.00;101658.25;5170707;28;20601;-68
2022/12/05 00:30:19;;;;;;;51.23;32.20;;;;;;;2.16;100.00;101651.31;5168565;28;20077;-68
2022/12/05 00:32:50;;;;;;;50.77;34.20;;;;;;;2.18;100.00;101643.56;5170183;28;20031;-68
2022/12/05 00:35:21;;;;;;;52.23;32.83;;;;;;;2.12;100.00;101633.28;5167830;28;20109;-69
2022/12/05 00:37:52;;;;;;;52.70;33.67;;;;;;;2.26;100.00;101638.28;5169509;28;20023;-68
2022/12/05 00:40:24;;;;;;;49.27;33.07;;;;;;;2.17;100.00;101639.25;5172487;28;20088;-68
2022/12/05 00:42:55;;;;;;;59.70;34.03;;;;;;;2.04;100.00;101625.63;5168523;28;20018;-69
2022/12/05 00:45:26;;;;;;;50.43;32.93;;;;;;;2.15;100.00;101633.22;5172308;28;20011;-69
2022/12/05 00:47:57;;;;;;;54.77;34.40;;;;;;;2.06;100.00;101618.69;5169004;28;20054;-68
2022/12/05 00:50:29;;;;;;;56.90;33.90;;;;;;;2.17;100.00;101637.53;5165606;28;20030;-69
2022/12/05 00:53:00;;;;;;;51.70;33.50;;;;;;;2.16;100.00;101635.81;5166368;28;20041;-69
2022/12/05 00:55:36;;;;;;;53.40;34.03;;;;;;;2.28;100.00;101633.97;5171518;28;20015;-68
2022/12/05 00:58:07;;;;;;;51.97;32.83;;;;;;;2.20;100.00;101635.78;5169153;28;20056;-68
2022/12/05 01:00:38;;;;;;;52.30;32.87;;;;;;;2.36;100.00;101641.59;5170766;28;20474;-68
2022/12/05 01:03:09;;;;;;;51.73;34.17;;;;;;;2.20;100.00;101643.53;5167638;28;20466;-69
2022/12/05 01:05:41;;;;;;;55.17;33.87;;;;;;;2.22;100.00;101618.50;5168945;28;20461;-69
2022/12/05 01:08:12;;;;;;;53.57;33.93;;;;;;;2.27;100.00;101640.84;5169467;28;20027;-69
2022/12/05 01:10:51;;;;;;;52.83;34.30;;;;;;;2.34;100.00;101644.22;5169047;28;20021;-69
2022/12/05 01:13:25;;;;;;;57.10;34.73;;;;;;;2.23;100.00;101644.38;5168900;28;20038;-69
2022/12/05 01:15:56;;;;;;;54.17;34.10;;;;;;;2.29;100.00;101646.00;5170071;28;20514;-69
2022/12/05 01:18:28;;;;;;;52.60;33.60;;;;;;;2.26;100.00;101648.63;5172002;28;20122;-69
2022/12/05 01:21:04;;;;;;;58.87;32.87;;;;;;;2.27;100.00;101645.19;5166982;28;20041;-69
2022/12/05 01:23:35;;;;;;;50.13;33.63;;;;;;;2.29;100.00;101648.59;5168916;28;20030;-68
2022/12/05 01:26:09;;;;;;;57.77;36.33;;;;;;;2.17;100.00;101652.16;5169669;28;20033;-69
2022/12/05 01:28:40;;;;;;;54.80;34.70;;;;;;;2.10;100.00;101651.38;5170808;28;20121;-68
2022/12/05 01:31:33;;;;;;;60.13;34.93;;;;;;;2.24;100.00;101650.38;5170541;28;20385;-69
2022/12/05 01:34:07;;;;;;;51.77;34.17;;;;;;;2.26;100.00;101652.06;5166680;28;20074;-68
2022/12/05 01:36:39;;;;;;;52.95;34.38;;;;;;;2.30;100.00;101663.25;5170015;28;20023;-69
2022/12/05 01:39:11;;;;;;;52.70;34.77;;;;;;;2.11;100.00;101652.25;5167420;28;20019;-69
2022/12/05 01:41:48;;;;;;;56.47;36.07;;;;;;;2.15;100.00;101667.69;5172649;28;20466;-69
2022/12/05 01:44:22;;;;;;;52.60;34.73;;;;;;;2.12;100.00;101669.47;5186803;28;20023;-69
2022/12/05 01:46:55;;;;;;;55.22;34.33;;;;;;;2.16;100.00;101656.47;5173070;28;20018;-69
2022/12/05 01:49:34;;;;;;;55.57;34.90;;;;;;;2.18;100.00;101665.06;5172849;28;20109;-70
2022/12/05 01:52:25;;;;;;;52.20;34.27;;;;;;;2.29;100.00;101667.53;5172817;28;20510;-69
2022/12/05 01:55:03;;;;;;;55.53;33.77;;;;;;;2.29;100.00;101679.59;5172617;28;20042;-69
2022/12/05 01:57:35;;;;;;;51.23;34.20;;;;;;;2.26;100.00;101674.47;5172967;28;20047;-69
2022/12/05 02:00:24;;;;;;;56.33;33.20;;;;;;;2.36;100.00;101681.25;5172709;28;20019;-68
2022/12/05 02:03:01;;;;;;;50.37;34.17;;;;;;;2.34;100.00;101680.41;5172996;28;20026;-68
2022/12/05 02:05:35;;;;;;;55.60;36.27;;;;;;;2.46;100.00;101683.75;5171985;28;20042;-68
2022/12/05 02:08:08;;;;;;;50.05;33.58;;;;;;;2.32;100.00;101671.84;5173146;28;20062;-69
2022/12/05 02:10:43;;;;;;;54.40;33.77;;;;;;;2.36;100.00;101681.25;5179957;28;20023;-68
2022/12/05 02:13:33;;;;;;;48.88;34.90;;;;;;;2.45;100.00;101689.75;5192668;28;20030;-69
2022/12/05 02:16:35;;;;;;;49.50;33.87;;;;;;;2.39;100.00;101678.63;5173886;28;20033;-69
2022/12/05 02:19:37;;;;;;;50.47;33.20;;;;;;;2.41;100.00;101682.06;5183351;28;20501;-68
2022/12/05 02:22:46;;;;;;;49.20;32.47;;;;;;;2.49;100.00;101678.53;5178799;28;20778;-69
2022/12/05 02:25:18;;;;;;;50.30;32.43;;;;;;;2.41;100.00;101679.47;5175244;28;20514;-69
2022/12/05 02:28:32;;;;;;;50.90;32.60;;;;;;;2.47;100.00;101681.13;5175464;28;20130;-68
2022/12/05 02:31:17;;;;;;;51.80;33.03;;;;;;;2.51;100.00;101667.28;5183765;28;20023;-69
2022/12/05 02:34:00;;;;;;;;;;;;;;;2.57;100.00;101676.69;5173537;28;20521;-68
2022/12/05 02:36:38;;;;;;;48.13;32.13;;;;;;;2.45;100.00;101667.34;5173321;28;20440;-68
2022/12/05 02:39:20;;;;;;;53.23;34.70;;;;;;;2.46;100.00;101663.88;5169882;28;20106;-68
2022/12/05 02:42:04;;;;;;;51.57;33.63;;;;;;;2.48;100.00;101662.13;5184781;28;20034;-68
2022/12/05 02:44:44;;;;;;;53.33;34.45;;;;;;;2.48;100.00;101666.47;5174783;28;20023;-69
2022/12/05 02:47:20;;;;;;;57.20;34.37;;;;;;;2.45;100.00;101669.06;5175055;28;20030;-69
2022/12/05 02:49:53;;;;;;;55.23;34.50;;;;;;;2.36;100.00;101673.50;5167058;28;20090;-68
2022/12/05 02:52:26;;;;;;;50.93;33.77;;;;;;;2.39;100.00;101672.63;5170272;28;20037;-68
2022/12/05 02:54:58;;;;;;;52.20;33.27;;;;;;;2.35;100.00;101671.78;5175436;28;20034;-69
2022/12/05 02:57:33;;;;;;;55.10;34.00;;;;;;;2.39;100.00;101657.09;5173143;28;20058;-69
2022/12/05 03:00:05;;;;;;;50.40;33.22;;;;;;;2.47;100.00;101670.78;5166955;28;20034;-69
2022/12/05 03:02:40;;;;;;;52.73;32.97;;;;;;;2.54;100.00;101672.44;5169329;28;20038;-69
2022/12/05 03:05:26;;;;;;;;;;;;;;;2.62;100.00;101674.91;5174908;28;20030;-67
2022/12/05 03:08:02;;;;;;;50.27;34.07;;;;;;;2.51;100.00;101685.38;5158698;28;20393;-68
2022/12/05 03:10:37;;;;;;;57.83;34.13;;;;;;;2.45;100.00;101676.84;5174153;28;20031;-68
2022/12/05 03:13:17;;;;;;;55.07;34.33;;;;;;;2.60;100.00;101681.81;5169007;28;20511;-68
2022/12/05 03:15:54;;;;;;;50.27;33.47;;;;;;;2.48;100.00;101675.06;5162204;28;20034;-69
2022/12/05 03:18:29;;;;;;;51.23;33.27;;;;;;;2.48;100.00;101672.47;5176048;28;20023;-69
2022/12/05 03:21:50;;;;;;;51.23;34.13;;;;;;;2.53;100.00;101675.03;5175015;28;20031;-69
2022/12/05 03:24:22;;;;;;;48.77;33.40;;;;;;;2.42;100.00;101663.09;5167202;28;20049;-69
2022/12/05 03:27:22;;;;;;;52.30;33.43;;;;;;;2.46;100.00;101670.81;5175866;28;20466;-69
2022/12/05 03:30:08;;;;;;;55.17;36.07;;;;;;;2.47;100.00;101669.91;5158847;28;20121;-69
2022/12/05 03:33:01;;;;;;;52.63;33.40;;;;;;;2.52;100.00;101665.53;5171898;28;20030;-69
2022/12/05 03:35:57;;;;;;;52.77;35.43;;;;;;;2.55;100.00;101673.25;5174380;28;20490;-68
2022/12/05 03:39:01;;;;;;;62.93;36.10;;;;;;;2.56;100.00;101668.94;5167120;28;20118;-69
2022/12/05 03:41:50;;;;;;;55.77;34.37;;;;;;;2.48;100.00;101672.47;5171426;28;20485;-69
2022/12/05 03:44:49;;;;;;;55.03;34.37;;;;;;;2.59;100.00;101667.19;5161374;28;20039;-69
2022/12/05 03:47:25;;;;;;;53.10;33.70;;;;;;;2.57;100.00;101666.34;5165826;28;20441;-69
2022/12/05 03:50:02;;;;;;;54.47;33.10;;;;;;;2.59;100.00;101664.59;5176902;28;20027;-69
2022/12/05 03:52:43;;;;;;;54.13;34.60;;;;;;;2.54;100.00;101666.38;5171073;28;20066;-69
2022/12/05 03:55:16;;;;;;;51.63;33.87;;;;;;;2.53;100.00;101668.13;5173956;28;20430;-69
2022/12/05 03:58:01;;;;;;;53.90;34.00;;;;;;;2.60;100.00;101668.88;5170857;28;20038;-69
2022/12/05 04:00:37;;;;;;;47.50;32.73;;;;;;;2.52;100.00;101669.00;5174878;28;20600;-69
2022/12/05 04:03:21;;;;;;;54.73;35.80;;;;;;;2.65;100.00;101668.84;5174771;28;20045;-69
2022/12/05 04:05:57;;;;;;;51.03;33.00;;;;;;;2.58;100.00;101673.25;5172931;28;20018;-69
2022/12/05 04:08:35;;;;;;;57.87;34.60;;;;;;;2.62;100.00;101684.38;5174961;28;20470;-69
2022/12/05 04:11:13;;;;;;;53.10;34.97;;;;;;;2.62;100.00;101669.72;5187921;28;20109;-69
2022/12/05 04:13:59;;;;;;;56.37;33.70;;;;;;;2.59;100.00;101674.94;5172763;28;20471;-69
2022/12/05 04:22:42;;;;;;;50.33;32.77;;;;;;;2.73;100.00;101684.25;5179917;28;20030;-69
2022/12/05 04:25:33;;;;;;;49.93;33.03;;;;;;;2.74;100.00;101680.81;5173190;28;20098;-70
2022/12/05 04:28:12;;;;;;;50.20;32.43;;;;;;;2.65;100.00;101685.19;5173753;28;20050;-69
2022/12/05 04:30:52;;;;;;;53.73;32.93;;;;;;;2.65;100.00;101674.03;5173656;28;20027;-70
2022/12/05 04:33:38;;;;;;;48.37;29.77;;;;;;;2.67;100.00;101677.44;5174018;28;20544;-69
2022/12/05 04:36:16;;;;;;;53.20;31.83;;;;;;;2.67;100.00;101687.78;5173197;28;20081;-69
2022/12/05 04:38:56;;;;;;;55.03;34.30;;;;;;;2.77;100.00;101683.34;5173158;28;20030;-69
2022/12/05 04:41:33;;;;;;;47.43;30.53;;;;;;;2.76;100.00;101681.63;5171648;28;20031;-69
2022/12/05 04:44:10;;;;;;;47.67;30.47;;;;;;;2.73;100.00;101689.41;5160747;28;20042;-69
2022/12/05 04:46:43;;;;;;;51.20;33.27;;;;;;;2.82;100.00;101691.91;5173615;28;20031;-69
2022/12/05 04:49:24;;;;;;;46.80;31.90;;;;;;;2.76;100.00;101692.81;5172601;28;20430;-69
2022/12/05 04:52:01;;;;;;;47.27;31.53;;;;;;;2.73;100.00;101692.88;5170295;28;20500;-69
2022/12/05 04:54:46;;;;;;;49.77;31.33;;;;;;;2.79;100.00;101686.78;5170475;28;20453;-69
2022/12/05 04:57:23;;;;;;;48.67;32.33;;;;;;;2.78;100.00;101690.22;5173688;28;20039;-69
2022/12/05 04:59:55;;;;;;;44.00;31.47;;;;;;;2.83;100.00;101682.41;5165722;28;20510;-70
2022/12/05 05:02:41;;;;;;;52.50;33.30;;;;;;;2.87;100.00;101684.94;5166642;28;20170;-69
2022/12/05 05:05:17;;;;;;;51.87;33.63;;;;;;;2.84;100.00;101686.69;5166573;28;20081;-70
2022/12/05 05:07:51;;;;;;;47.13;31.47;;;;;;;2.85;100.00;101688.41;5171852;28;20097;-69
2022/12/05 05:10:36;;;;;;;49.08;31.67;;;;;;;2.82;100.00;101689.31;5172816;28;20520;-69
2022/12/05 05:13:07;;;;;;;50.87;32.33;;;;;;;2.72;100.00;101688.59;5172651;28;20031;-69
2022/12/05 05:15:39;;;;;;;47.57;30.27;;;;;;;2.59;100.00;101695.63;5173760;28;20035;-70
2022/12/05 05:18:10;;;;;;;43.93;29.10;;;;;;;2.62;100.00;101695.59;5171819;28;20035;-69
2022/12/05 05:20:41;;;;;;;50.40;33.10;;;;;;;2.59;100.00;101679.25;5172728;28;20038;-69
2022/12/05 05:23:13;;;;;;;47.50;32.80;;;;;;;2.74;100.00;101707.50;5171010;28;20041;-70
2022/12/05 05:25:44;;;;;;;46.00;31.90;;;;;;;2.69;100.00;101705.88;5173214;28;20089;-69
2022/12/05 05:28:16;;;;;;;52.27;33.33;;;;;;;2.74;100.00;101697.16;5172294;28;20073;-69
2022/12/05 05:30:47;;;;;;;49.93;31.67;;;;;;;2.75;100.00;101700.63;5171697;28;20035;-69
2022/12/05 05:33:18;;;;;;;45.43;30.87;;;;;;;2.72;100.00;101700.66;5160018;28;20027;-68
2022/12/05 05:35:50;;;;;;;50.23;31.83;;;;;;;2.83;100.00;101703.94;5161533;28;20038;-69
2022/12/05 05:38:21;;;;;;;47.57;31.77;;;;;;;2.76;100.00;101702.31;5159837;28;20399;-69
2022/12/05 05:40:52;;;;;;;48.47;32.87;;;;;;;2.73;100.00;101702.34;5161696;28;20455;-69
2022/12/05 05:43:23;;;;;;;47.53;31.40;;;;;;;2.72;100.00;101692.91;5160154;28;20110;-69
2022/12/05 05:45:55;;;;;;;53.83;32.90;;;;;;;2.75;100.00;101704.06;5168008;28;20034;-69
2022/12/05 05:48:26;;;;;;;52.17;33.43;;;;;;;2.64;100.00;101701.59;5171331;28;20033;-69
2022/12/05 05:50:59;;;;;;;48.07;31.90;;;;;;;2.81;100.00;101703.09;5164691;28;20484;-69
2022/12/05 05:53:31;;;;;;;43.17;28.60;;;;;;;2.65;100.00;101689.53;5163798;28;20053;-69
2022/12/05 05:56:09;;;;;;;44.57;30.87;;;;;;;2.72;100.00;101705.84;5159531;28;20035;-69
2022/12/05 05:58:41;;;;;;;46.40;30.43;;;;;;;2.78;100.00;101701.44;5162482;28;20106;-69
2022/12/05 06:01:16;;;;;;;45.47;29.67;;;;;;;2.73;100.00;101712.69;5163186;28;20553;-70
2022/12/05 06:03:49;;;;;;;;;;;;;;;2.91;100.00;101714.22;5157189;28;20066;-70
2022/12/05 06:06:21;;;;;;;48.33;30.13;;;;;;;2.70;100.00;101717.94;5171977;28;20277;-69
2022/12/05 06:08:53;;;;;;;49.07;31.13;;;;;;;2.64;100.00;101721.44;5170899;28;20073;-69
2022/12/05 06:11:26;;;;;;;44.67;30.73;;;;;;;2.74;100.00;101717.03;5172957;28;20025;-69
2022/12/05 06:14:01;;;;;;;47.47;30.20;;;;;;;2.66;100.00;101717.97;5172645;28;20026;-69
2022/12/05 06:16:33;;;;;;;46.70;30.33;;;;;;;2.76;100.00;101707.47;5171976;28;20034;-69
2022/12/05 06:19:04;;;;;;;42.47;29.37;;;;;;;2.83;100.00;101719.47;5170455;28;20034;-69
2022/12/05 06:21:35;;;;;;;46.80;30.10;;;;;;;2.82;100.00;101717.78;5176630;28;20574;-69
2022/12/05 06:24:07;;;;;;;44.77;28.67;;;;;;;2.83;100.00;101719.47;5172754;28;20475;-68
2022/12/05 06:26:38;;;;;;;42.20;29.30;;;;;;;2.76;100.00;101723.88;5172402;28;20034;-68
2022/12/05 06:29:10;;;;;;;48.97;31.10;;;;;;;2.90;100.00;101718.53;5172282;28;20081;-68
2022/12/05 06:31:41;;;;;;;44.63;29.87;;;;;;;2.79;100.00;101723.00;5169644;28;20085;-69
2022/12/05 06:34:13;;;;;;;44.87;29.70;;;;;;;2.79;100.00;101720.41;5169630;28;20115;-70
2022/12/05 06:36:44;;;;;;;54.43;31.63;;;;;;;2.72;100.00;101719.63;5162018;28;20478;-69
2022/12/05 06:39:15;;;;;;;44.70;31.13;;;;;;;2.75;100.00;101729.94;5172228;28;20034;-68
2022/12/05 06:41:46;;;;;;;43.53;30.30;;;;;;;2.84;100.00;101723.78;5165699;28;20031;-69
2022/12/05 06:44:19;;;;;;;41.10;28.77;;;;;;;2.76;100.00;101733.34;5162178;28;20039;-69
2022/12/05 06:46:50;;;;;;;40.23;27.33;;;;;;;2.81;100.00;101728.97;5170626;28;20771;-69
2022/12/05 06:49:25;;;;;;;48.03;30.50;;;;;;;2.87;100.00;101731.50;5170352;28;20110;-68
2022/12/05 06:51:56;;;;;;;45.38;29.23;;;;;;;2.88;100.00;101722.84;5164879;28;20071;-69
2022/12/05 06:54:28;;;;;;;42.90;27.67;;;;;;;2.89;100.00;101719.41;5172138;28;20605;-68
2022/12/05 06:56:59;;;;;;;42.80;29.43;;;;;;;2.96;100.00;101732.25;5164819;28;20487;-69
2022/12/05 06:59:30;;;;;;;41.73;28.57;;;;;;;2.88;100.00;101722.84;5168854;28;20033;-69
2022/12/05 07:02:02;;;;;;;38.70;27.27;;;;;;;2.97;100.00;101731.38;5170798;28;20046;-70
2022/12/05 07:04:33;;;;;;;45.07;30.37;;;;;;;2.95;100.00;101735.72;5174584;28;20045;-70
2022/12/05 07:07:05;;;;;;;39.93;28.30;;;;;;;3.00;100.00;101731.34;5174650;28;20537;-70
2022/12/05 07:09:47;;;;;;;40.83;28.90;;;;;;;2.99;100.00;101740.84;5174341;28;20061;-69
2022/12/05 07:12:18;;;;;;;39.23;27.77;;;;;;;2.96;100.00;101751.22;5172363;28;20031;-70
2022/12/05 07:14:50;;;;;;;40.23;27.63;;;;;;;3.02;100.00;101745.97;5164458;28;20382;-70
2022/12/05 07:17:21;;;;;;;38.93;26.80;;;;;;;2.97;100.00;101752.94;5169532;28;20027;-70
2022/12/05 07:19:52;;;;;;;41.60;26.67;;;;;;;3.01;100.00;101759.78;5167080;28;20031;-70
2022/12/05 07:22:24;;;;;;;38.43;26.83;;;;;;;3.01;100.00;101759.78;5166489;28;20386;-70
2022/12/05 07:24:55;;;;;;;42.13;28.50;;;;;;;3.01;100.00;101756.34;5171961;28;20031;-70
2022/12/05 07:27:26;;;;;;;38.33;26.37;;;;;;;2.87;100.00;101752.22;5175825;28;20109;-71
2022/12/05 07:29:58;;;;;;;39.17;25.93;;;;;;;2.94;100.00;101762.47;5170557;28;20035;-71
2022/12/05 07:32:33;;;;;;;39.30;26.17;;;;;;;3.02;100.00;101776.16;5173978;28;20565;-71
2022/12/05 07:35:04;;;;;;;38.87;25.37;;;;;;;2.96;100.00;101781.41;5172723;28;20027;-71
2022/12/05 07:37:36;;;;;;;38.00;25.63;;;;;;;2.96;100.00;101755.53;5178341;28;20406;-71
2022/12/05 07:40:08;;;;;;;38.23;27.00;;;;;;;3.10;100.00;101779.53;5175621;28;20081;-71
2022/12/05 07:42:39;;;;;;;38.37;26.50;;;;;;;2.96;100.00;101768.47;5175581;28;20031;-71
2022/12/05 07:45:10;;;;;;;37.40;25.23;;;;;;;2.95;100.00;101769.38;5183028;28;20101;-71
2022/12/05 07:47:41;;;;;;;38.33;27.33;;;;;;;2.93;100.00;101765.94;5172196;28;20062;-71
2022/12/05 07:50:13;;;;;;;38.43;24.37;;;;;;;2.96;100.00;101765.91;5173204;28;20492;-71
2022/12/05 07:52:45;;;;;;;33.73;24.30;;;;;;;2.95;100.00;101780.56;5167490;28;20031;-71
2022/12/05 07:55:16;;;;;;;37.40;24.07;;;;;;;2.93;100.00;101776.28;5164086;28;20682;-71
2022/12/05 07:57:47;;;;;;;37.03;25.93;;;;;;;2.95;100.00;101785.72;5164580;28;20105;-71
2022/12/05 08:00:19;;;;;;;37.17;25.60;;;;;;;2.90;100.00;101783.22;5167957;28;20117;-72
2022/12/05 08:02:50;;;;;;;35.83;25.80;;;;;;;2.95;100.00;101787.47;5162432;28;20140;-71
2022/12/05 08:05:22;;;;;;;37.77;26.03;;;;;;;2.96;100.00;101784.00;5171956;28;20026;-71
2022/12/05 08:07:53;;;;;;;39.97;25.93;;;;;;;2.98;100.00;101782.25;5172546;28;20023;-71
2022/12/05 08:10:25;;;;;;;38.53;26.70;;;;;;;2.96;100.00;101786.59;5169657;28;20030;-71
2022/12/05 08:12:56;;;;;;;35.63;25.13;;;;;;;2.95;100.00;101790.06;5169696;28;20038;-70
2022/12/05 08:15:27;;;;;;;43.47;25.47;;;;;;;3.08;100.00;101795.94;5172117;28;20462;-71
2022/12/05 08:17:58;;;;;;;39.03;26.47;;;;;;;3.08;100.00;101794.22;5170359;28;20030;-71
2022/12/05 08:20:30;;;;;;;36.53;24.50;;;;;;;3.04;100.00;101795.13;5164304;28;20031;-72
2022/12/05 08:23:01;;;;;;;38.00;24.97;;;;;;;3.04;100.00;101804.63;5165008;28;20031;-71
2022/12/05 08:25:32;;;;;;;35.77;25.23;;;;;;;2.99;100.00;101799.50;5167602;28;20050;-72
2022/12/05 08:28:04;;;;;;;40.27;23.70;;;;;;;3.03;100.00;101814.13;5172717;28;20413;-72
2022/12/05 08:30:35;;;;;;;37.23;25.30;;;;;;;3.11;100.00;101814.88;5172208;28;20069;-71
2022/12/05 08:33:06;;;;;;;35.70;25.70;;;;;;;3.21;100.00;101819.94;5161707;28;20039;-71
2022/12/05 08:35:37;;;;;;;34.33;24.50;;;;;;;3.22;100.00;101819.06;5170545;28;20041;-71
2022/12/05 08:38:09;;;;;;;33.63;24.40;;;;;;;3.18;100.00;101814.81;5164838;28;20039;-72
2022/12/05 08:40:40;;;;;;;39.50;25.00;;;;;;;3.13;100.00;101820.91;5176414;28;20461;-72
2022/12/05 08:43:12;;;;;;;34.60;23.73;;;;;;;3.16;100.00;101824.31;5162257;28;20422;-72
2022/12/05 08:45:52;;;;;;;33.17;23.53;;;;;;;3.22;100.00;101819.91;5168709;28;20353;-72
2022/12/05 08:48:25;;;;;;;35.30;24.97;;;;;;;3.09;100.00;101811.44;5160158;28;20426;-72
2022/12/05 08:50:57;;;;;;;36.67;24.37;;;;;;;3.12;100.00;101816.59;5171735;28;20457;-72
2022/12/05 08:53:28;;;;;;;35.83;24.40;;;;;;;3.05;100.00;101806.34;5170993;28;20031;-77
2022/12/05 08:56:01;;;;;;;35.40;24.93;;;;;;;3.13;100.00;101822.63;5174310;28;20375;-71
2022/12/05 08:58:33;;;;;;;34.90;24.17;;;;;;;3.23;100.00;101824.22;5172035;28;20023;-71
2022/12/05 09:01:16;;;;;;;37.33;25.43;;;;;;;3.05;100.00;101809.78;5178868;28;20042;-71
2022/12/05 09:03:47;;;;;;;37.53;25.33;;;;;;;3.09;100.00;101829.56;5167180;28;20024;-73
2022/12/05 09:06:21;;;;;;;38.07;25.20;;;;;;;3.17;100.00;101833.78;5179540;28;20492;-72
2022/12/05 09:08:58;;;;;;;34.25;24.73;;;;;;;3.26;100.00;101836.28;5177481;28;20029;-72
2022/12/05 09:11:32;;;;;;;36.50;25.07;;;;;;;3.18;100.00;101835.53;5169879;28;20027;-72
2022/12/05 09:14:05;;;;;;;36.33;24.08;;;;;;;3.11;100.00;101834.72;5170756;28;20077;-72
2022/12/05 09:16:37;;;;;;;35.20;24.83;;;;;;;3.14;100.00;101847.66;5181726;28;20041;-71
2022/12/05 09:19:12;;;;;;;32.77;23.37;;;;;;;3.03;100.00;101829.66;5171318;28;20039;-71
2022/12/05 09:21:44;;;;;;;37.17;24.83;;;;;;;3.15;100.00;101846.75;5175465;28;20031;-71
2022/12/05 09:24:15;;;;;;;38.57;25.87;;;;;;;3.14;100.00;101840.72;5164000;28;20019;-71
2022/12/05 09:26:46;;;;;;;33.50;23.63;;;;;;;3.08;100.00;101845.97;5173082;28;20015;-71
2022/12/05 09:29:18;;;;;;;34.73;23.90;;;;;;;3.24;100.00;101851.84;5171210;28;20026;-71
2022/12/05 09:31:51;;;;;;;37.87;24.17;;;;;;;3.09;100.00;101846.84;5155687;28;20026;-71
2022/12/05 09:34:24;;;;;;;32.80;23.87;;;;;;;3.10;100.00;101845.97;5172777;28;20493;-70
2022/12/05 09:36:56;;;;;;;36.00;24.17;;;;;;;3.23;100.00;101857.03;5156100;28;20015;-71
2022/12/05 09:39:28;;;;;;;34.30;23.60;;;;;;;3.12;100.00;101855.44;5169663;28;20033;-71
2022/12/05 09:42:42;;;;;;;34.43;23.87;;;;;;;3.24;100.00;101858.75;5168255;28;20068;-71
2022/12/05 09:45:29;;;;;;;34.00;22.67;;;;;;;3.22;100.00;101860.47;5172891;28;20027;-71
2022/12/05 09:48:12;;;;;;;33.07;21.90;;;;;;;3.25;100.00;101865.63;5164462;28;20027;-71
2022/12/05 09:50:45;;;;;;;30.77;22.20;;;;;;;3.13;100.00;101864.91;5164816;28;20031;-71
2022/12/05 09:53:26;;;;;;;29.63;20.43;;;;;;;3.14;100.00;101869.19;5174214;28;20478;-71
2022/12/05 09:56:07;;;;;;;26.80;20.83;;;;;;;3.09;100.00;101865.81;5175775;28;20095;-71
2022/12/05 09:58:43;;;;;;;31.03;22.00;;;;;;;3.21;100.00;101861.38;5170881;28;20490;-71
2022/12/05 10:01:30;;;;;;;28.07;20.47;;;;;;;3.21;100.00;101863.97;5159679;28;20290;-71
2022/12/05 10:04:17;;;;;;;28.63;19.77;;;;;;;3.20;100.00;101870.00;5155020;28;20019;-71
2022/12/05 10:07:18;;;;;;;27.27;20.03;;;;;;;3.26;100.00;101869.94;5171795;28;20529;-72
2022/12/05 10:10:03;;;;;;;29.10;21.10;;;;;;;3.36;100.00;101870.66;5158503;28;20027;-71
2022/12/05 10:12:43;;;;;;;25.97;19.43;;;;;;;3.32;100.00;101866.38;5168871;28;20100;-71
2022/12/05 10:15:46;;;;;;;29.90;19.90;;;;;;;3.33;100.00;101865.53;5170419;28;20050;-72
2022/12/05 10:19:00;;;;;;;30.40;20.57;;;;;;;3.43;100.00;101867.13;5169647;28;20035;-71
2022/12/05 10:21:50;;;;;;;25.13;17.47;;;;;;;3.39;100.00;101861.13;5155866;28;20046;-71
2022/12/05 10:24:36;;;;;;;22.23;17.90;;;;;;;3.36;100.00;101858.59;5170392;28;20406;-71
2022/12/05 10:27:20;;;;;;;22.67;17.00;;;;;;;3.37;100.00;101855.09;5181621;28;20035;-71
2022/12/05 10:30:05;;;;;;;21.57;16.50;;;;;;;3.46;100.00;101866.22;5174327;28;20041;-71
2022/12/05 10:32:58;;;;;;;24.17;15.27;;;;;;;3.49;100.00;101864.44;5178238;28;20386;-71
2022/12/05 10:35:34;;;;;;;22.77;16.07;;;;;;;3.41;100.00;101871.47;5170781;28;20033;-71
2022/12/05 10:38:09;;;;;;;23.10;17.37;;;;;;;3.35;100.00;101859.44;5175267;28;20023;-71
2022/12/05 10:40:48;;;;;;;23.47;17.57;;;;;;;3.49;100.00;101871.38;5170567;28;20050;-71
2022/12/05 10:43:29;;;;;;;21.63;16.40;;;;;;;3.40;100.00;101869.75;5163944;28;20031;-71
2022/12/05 10:46:01;;;;;;;22.33;16.13;;;;;;;3.54;100.00;101864.41;5163562;28;20022;-71
2022/12/05 10:48:36;;;;;;;22.50;16.33;;;;;;;3.48;100.00;101865.34;5157658;28;20678;-71
2022/12/05 10:51:15;;;;;;;;;;;;;;;3.66;100.00;101870.28;5189604;28;20026;-71
2022/12/05 10:53:49;;;;;;;22.97;17.17;;;;;;;3.55;100.00;101876.47;5169790;28;20401;-71
2022/12/05 10:56:36;;;;;;;;;;;;;;;3.65;100.00;101874.59;5168686;28;20500;-71
2022/12/05 10:59:12;;;;;;;21.77;16.23;;;;;;;3.49;100.00;101873.97;5168091;28;19914;-71
2022/12/05 11:01:47;;;;;;;19.97;16.37;;;;;;;3.44;100.00;101860.22;5177797;28;20994;-71
2022/12/05 11:04:26;;;;;;;19.50;15.93;;;;;;;3.55;100.00;101868.69;5177113;28;20022;-71
2022/12/05 11:07:00;;;;;;;21.63;16.17;;;;;;;3.36;100.00;101853.41;5181766;28;20025;-71
2022/12/05 11:09:36;;;;;;;21.20;16.38;;;;;;;3.50;100.00;101865.31;5175245;28;20037;-70
2022/12/05 11:12:08;;;;;;;19.93;15.13;;;;;;;3.40;100.00;101864.59;5167084;28;20018;-71
2022/12/05 11:14:39;;;;;;;22.30;17.00;;;;;;;3.51;100.00;101861.81;5175266;28;20034;-71
2022/12/05 11:17:24;;;;;;;20.73;16.23;;;;;;;3.61;100.00;101853.06;5173065;28;20386;-69
2022/12/05 11:19:55;;;;;;;20.17;15.60;;;;;;;3.53;100.00;101854.91;5170189;28;20111;-69
2022/12/05 11:22:34;;;;;;;21.07;15.30;;;;;;;3.53;100.00;101847.13;5175586;28;20034;-69
2022/12/05 11:25:33;;;;;;;20.47;14.60;;;;;;;3.68;100.00;101852.97;5174331;28;20049;-69
2022/12/05 11:28:16;;;;;;;16.93;14.37;;;;;;;3.54;100.00;101856.63;5167754;28;20644;-70
2022/12/05 11:31:12;;;;;;;18.40;14.47;;;;;;;3.59;100.00;101857.41;5171055;28;20034;-71
2022/12/05 11:34:03;;;;;;;21.13;15.23;;;;;;;3.65;100.00;101855.63;5173893;28;20026;-71
2022/12/05 11:36:45;;;;;;;17.07;13.17;;;;;;;3.48;100.00;101847.19;5169188;28;20059;-73
2022/12/05 11:39:16;;;;;;;17.70;13.87;;;;;;;3.36;100.00;101845.63;5173277;28;20117;-70
2022/12/05 11:42:02;;;;;;;16.53;12.93;;;;;;;3.52;100.00;101842.84;5178333;28;20039;-71
2022/12/05 11:44:59;;;;;;;16.03;12.60;;;;;;;3.68;100.00;101847.78;5168766;28;20069;-70
2022/12/05 11:47:30;;;;;;;14.67;12.40;;;;;;;3.50;100.00;101845.44;5173328;28;20031;-70
2022/12/05 11:50:15;;;;;;;14.00;11.93;;;;;;;3.65;100.00;101848.69;5175411;28;20066;-70
2022/12/05 11:53:01;;;;;;;;;;;;;;;3.78;100.00;101846.78;5183638;28;20129;-69
2022/12/05 11:55:42;;;;;;;16.23;12.00;;;;;;;3.51;100.00;101848.88;5185355;28;19918;-71
2022/12/05 11:58:31;;;;;;;14.40;12.03;;;;;;;3.67;100.00;101841.75;5175042;28;20039;-70
2022/12/05 12:01:09;;;;;;;15.97;11.83;;;;;;;3.71;100.00;101850.34;5173659;28;20030;-74
2022/12/05 12:03:47;;;;;;;14.47;11.57;;;;;;;3.67;100.00;101846.06;5180446;28;20035;-73